sensor_id;sensor_type;location;lat;lon;timestamp;P1;durP1;ratioP1;P2;durP2;ratioP2
6667;SDS011;3370;47.712;9.082;2023-02-28T00:00:34;8.33;;;6.83;;
6667;SDS011;3370;47.712;9.082;2023-02-28T00:03:01;7.63;;;6.90;;
6667;SDS011;3370;47.712;9.082;2023-02-28T00:05:28;9.27;;;7.20;;
6667;SDS011;3370;47.712;9.082;2023-02-28T00:07:54;9.23;;;7.30;;
6667;SDS011;3370;47.712;9.082;2023-02-28T00:10:25;7.67;;;6.87;;
6667;SDS011;3370;47.712;9.082;2023-02-28T00:12:54;8.13;;;7.33;;
6667;SDS011;3370;47.712;9.082;2023-02-28T00:15:23;11.50;;;7.37;;
6667;SDS011;3370;47.712;9.082;2023-02-28T00:17:50;8.70;;;6.83;;
6667;SDS011;3370;47.712;9.082;2023-02-28T00:20:16;10.90;;;7.07;;
6667;SDS011;3370;47.712;9.082;2023-02-28T00:22:44;8.83;;;7.00;;
6667;SDS011;3370;47.712;9.082;2023-02-28T00:25:14;10.20;;;7.90;;
6667;SDS011;3370;47.712;9.082;2023-02-28T00:27:43;9.90;;;7.20;;
6667;SDS011;3370;47.712;9.082;2023-02-28T00:30:10;7.20;;;6.57;;
6667;SDS011;3370;47.712;9.082;2023-02-28T00:32:40;9.27;;;7.20;;
6667;SDS011;3370;47.712;9.082;2023-02-28T00:35:06;7.83;;;6.43;;
6667;SDS011;3370;47.712;9.082;2023-02-28T00:37:34;7.73;;;7.03;;
6667;SDS011;3370;47.712;9.082;2023-02-28T00:40:00;7.10;;;6.40;;
6667;SDS011;3370;47.712;9.082;2023-02-28T00:42:26;7.97;;;7.17;;
6667;SDS011;3370;47.712;9.082;2023-02-28T00:44:52;7.50;;;6.73;;
6667;SDS011;3370;47.712;9.082;2023-02-28T00:47:17;9.73;;;7.67;;
6667;SDS011;3370;47.712;9.082;2023-02-28T00:49:43;7.73;;;6.80;;
6667;SDS011;3370;47.712;9.082;2023-02-28T00:52:09;7.03;;;6.33;;
6667;SDS011;3370;47.712;9.082;2023-02-28T00:54:35;8.97;;;7.17;;
6667;SDS011;3370;47.712;9.082;2023-02-28T00:57:01;6.93;;;6.23;;
6667;SDS011;3370;47.712;9.082;2023-02-28T00:59:27;8.30;;;6.90;;
6667;SDS011;3370;47.712;9.082;2023-02-28T01:01:52;8.73;;;7.30;;
6667;SDS011;3370;47.712;9.082;2023-02-28T01:04:18;7.57;;;6.40;;
6667;SDS011;3370;47.712;9.082;2023-02-28T01:06:44;9.00;;;7.20;;
6667;SDS011;3370;47.712;9.082;2023-02-28T01:09:10;7.53;;;6.53;;
6667;SDS011;3370;47.712;9.082;2023-02-28T01:11:37;6.80;;;6.20;;
6667;SDS011;3370;47.712;9.082;2023-02-28T01:14:04;10.60;;;7.00;;
6667;SDS011;3370;47.712;9.082;2023-02-28T01:16:30;7.40;;;5.90;;
6667;SDS011;3370;47.712;9.082;2023-02-28T01:18:56;8.30;;;7.50;;
6667;SDS011;3370;47.712;9.082;2023-02-28T01:21:22;7.37;;;6.77;;
6667;SDS011;3370;47.712;9.082;2023-02-28T01:23:49;7.17;;;6.20;;
6667;SDS011;3370;47.712;9.082;2023-02-28T01:26:17;9.07;;;7.20;;
6667;SDS011;3370;47.712;9.082;2023-02-28T01:28:45;7.97;;;7.10;;
6667;SDS011;3370;47.712;9.082;2023-02-28T01:31:12;12.30;;;6.80;;
6667;SDS011;3370;47.712;9.082;2023-02-28T01:33:38;6.60;;;6.10;;
6667;SDS011;3370;47.712;9.082;2023-02-28T01:36:06;9.20;;;7.13;;
6667;SDS011;3370;47.712;9.082;2023-02-28T01:38:45;15.30;;;6.80;;
6667;SDS011;3370;47.712;9.082;2023-02-28T01:41:14;6.63;;;6.03;;
6667;SDS011;3370;47.712;9.082;2023-02-28T01:46:12;7.00;;;6.13;;
6667;SDS011;3370;47.712;9.082;2023-02-28T01:48:40;10.53;;;6.67;;
6667;SDS011;3370;47.712;9.082;2023-02-28T01:51:30;8.07;;;6.60;;
6667;SDS011;3370;47.712;9.082;2023-02-28T01:54:16;10.70;;;6.97;;
6667;SDS011;3370;47.712;9.082;2023-02-28T01:56:53;8.43;;;6.03;;
6667;SDS011;3370;47.712;9.082;2023-02-28T01:59:33;6.93;;;6.00;;
6667;SDS011;3370;47.712;9.082;2023-02-28T02:02:17;6.63;;;5.40;;
6667;SDS011;3370;47.712;9.082;2023-02-28T02:05:07;9.43;;;6.23;;
6667;SDS011;3370;47.712;9.082;2023-02-28T02:07:41;13.00;;;11.83;;
6667;SDS011;3370;47.712;9.082;2023-02-28T02:10:15;6.73;;;6.17;;
6667;SDS011;3370;47.712;9.082;2023-02-28T02:13:00;7.50;;;6.17;;
6667;SDS011;3370;47.712;9.082;2023-02-28T02:36:48;7.57;;;6.17;;
6667;SDS011;3370;47.712;9.082;2023-02-28T02:39:29;6.30;;;5.70;;
6667;SDS011;3370;47.712;9.082;2023-02-28T02:42:11;6.90;;;6.13;;
6667;SDS011;3370;47.712;9.082;2023-02-28T02:44:43;7.53;;;5.80;;
6667;SDS011;3370;47.712;9.082;2023-02-28T02:47:19;11.30;;;6.57;;
6667;SDS011;3370;47.712;9.082;2023-02-28T02:49:51;6.33;;;5.83;;
6667;SDS011;3370;47.712;9.082;2023-02-28T02:52:22;6.50;;;5.83;;
6667;SDS011;3370;47.712;9.082;2023-02-28T02:54:55;7.47;;;5.70;;
6667;SDS011;3370;47.712;9.082;2023-02-28T02:57:29;7.70;;;6.10;;
6667;SDS011;3370;47.712;9.082;2023-02-28T03:00:03;7.53;;;5.90;;
6667;SDS011;3370;47.712;9.082;2023-02-28T03:02:34;6.33;;;5.83;;
6667;SDS011;3370;47.712;9.082;2023-02-28T03:05:04;7.00;;;5.43;;
6667;SDS011;3370;47.712;9.082;2023-02-28T03:07:40;6.00;;;5.40;;
6667;SDS011;3370;47.712;9.082;2023-02-28T03:10:25;10.00;;;6.20;;
6667;SDS011;3370;47.712;9.082;2023-02-28T03:19:11;6.10;;;5.70;;
6667;SDS011;3370;47.712;9.082;2023-02-28T03:21:54;6.10;;;5.60;;
6667;SDS011;3370;47.712;9.082;2023-02-28T03:33:31;6.80;;;5.33;;
6667;SDS011;3370;47.712;9.082;2023-02-28T03:38:44;7.13;;;6.53;;
6667;SDS011;3370;47.712;9.082;2023-02-28T03:41:47;8.73;;;5.83;;
6667;SDS011;3370;47.712;9.082;2023-02-28T03:44:34;6.20;;;5.50;;
6667;SDS011;3370;47.712;9.082;2023-02-28T03:47:10;6.37;;;5.87;;
6667;SDS011;3370;47.712;9.082;2023-02-28T03:49:51;43.43;;;34.70;;
6667;SDS011;3370;47.712;9.082;2023-02-28T03:52:25;7.07;;;6.37;;
6667;SDS011;3370;47.712;9.082;2023-02-28T03:54:58;6.30;;;5.70;;
6667;SDS011;3370;47.712;9.082;2023-02-28T03:57:33;6.17;;;5.53;;
6667;SDS011;3370;47.712;9.082;2023-02-28T04:00:20;6.27;;;5.77;;
6667;SDS011;3370;47.712;9.082;2023-02-28T04:02:58;6.50;;;5.57;;
6667;SDS011;3370;47.712;9.082;2023-02-28T04:05:24;8.83;;;5.90;;
6667;SDS011;3370;47.712;9.082;2023-02-28T04:07:50;7.57;;;5.57;;
6667;SDS011;3370;47.712;9.082;2023-02-28T04:10:16;7.20;;;6.27;;
6667;SDS011;3370;47.712;9.082;2023-02-28T04:12:43;6.30;;;5.70;;
6667;SDS011;3370;47.712;9.082;2023-02-28T04:15:09;8.67;;;5.70;;
6667;SDS011;3370;47.712;9.082;2023-02-28T04:17:36;10.20;;;6.03;;
6667;SDS011;3370;47.712;9.082;2023-02-28T04:20:02;8.17;;;6.13;;
6667;SDS011;3370;47.712;9.082;2023-02-28T04:22:34;7.77;;;6.33;;
6667;SDS011;3370;47.712;9.082;2023-02-28T04:25:01;7.93;;;6.17;;
6667;SDS011;3370;47.712;9.082;2023-02-28T04:27:27;7.53;;;5.30;;
6667;SDS011;3370;47.712;9.082;2023-02-28T04:29:52;7.53;;;5.63;;
6667;SDS011;3370;47.712;9.082;2023-02-28T04:32:18;9.57;;;6.20;;
6667;SDS011;3370;47.712;9.082;2023-02-28T04:34:44;5.97;;;5.13;;
6667;SDS011;3370;47.712;9.082;2023-02-28T04:37:09;7.77;;;5.77;;
6667;SDS011;3370;47.712;9.082;2023-02-28T04:39:36;6.00;;;5.50;;
6667;SDS011;3370;47.712;9.082;2023-02-28T04:42:02;8.40;;;5.70;;
6667;SDS011;3370;47.712;9.082;2023-02-28T04:44:28;6.80;;;6.07;;
6667;SDS011;3370;47.712;9.082;2023-02-28T04:46:54;5.40;;;4.90;;
6667;SDS011;3370;47.712;9.082;2023-02-28T04:49:20;7.43;;;6.40;;
6667;SDS011;3370;47.712;9.082;2023-02-28T04:51:46;7.70;;;6.47;;
6667;SDS011;3370;47.712;9.082;2023-02-28T04:54:12;7.00;;;6.10;;
6667;SDS011;3370;47.712;9.082;2023-02-28T04:56:38;6.80;;;6.17;;
6667;SDS011;3370;47.712;9.082;2023-02-28T04:59:04;7.20;;;6.23;;
6667;SDS011;3370;47.712;9.082;2023-02-28T05:01:30;8.13;;;5.90;;
6667;SDS011;3370;47.712;9.082;2023-02-28T05:04:00;8.33;;;7.13;;
6667;SDS011;3370;47.712;9.082;2023-02-28T05:06:28;6.67;;;5.97;;
6667;SDS011;3370;47.712;9.082;2023-02-28T05:08:57;8.80;;;7.10;;
6667;SDS011;3370;47.712;9.082;2023-02-28T05:11:25;8.60;;;6.50;;
6667;SDS011;3370;47.712;9.082;2023-02-28T05:14:00;7.27;;;6.57;;
6667;SDS011;3370;47.712;9.082;2023-02-28T05:16:28;7.87;;;7.03;;
6667;SDS011;3370;47.712;9.082;2023-02-28T05:18:54;8.30;;;7.50;;
6667;SDS011;3370;47.712;9.082;2023-02-28T05:23:58;9.27;;;7.77;;
6667;SDS011;3370;47.712;9.082;2023-02-28T05:26:27;7.80;;;7.00;;
6667;SDS011;3370;47.712;9.082;2023-02-28T05:28:53;8.47;;;6.80;;
6667;SDS011;3370;47.712;9.082;2023-02-28T05:31:20;7.30;;;6.70;;
6667;SDS011;3370;47.712;9.082;2023-02-28T05:33:47;7.83;;;7.13;;
6667;SDS011;3370;47.712;9.082;2023-02-28T05:36:13;7.90;;;6.90;;
6667;SDS011;3370;47.712;9.082;2023-02-28T05:38:39;9.00;;;6.67;;
6667;SDS011;3370;47.712;9.082;2023-02-28T05:41:14;8.47;;;7.57;;
6667;SDS011;3370;47.712;9.082;2023-02-28T05:43:40;8.00;;;7.20;;
6667;SDS011;3370;47.712;9.082;2023-02-28T05:46:07;14.53;;;8.40;;
6667;SDS011;3370;47.712;9.082;2023-02-28T05:48:36;7.83;;;7.00;;
6667;SDS011;3370;47.712;9.082;2023-02-28T05:51:03;8.13;;;7.43;;
6667;SDS011;3370;47.712;9.082;2023-02-28T05:53:30;9.53;;;7.37;;
6667;SDS011;3370;47.712;9.082;2023-02-28T05:55:56;8.30;;;7.40;;
6667;SDS011;3370;47.712;9.082;2023-02-28T05:58:22;8.17;;;7.43;;
6667;SDS011;3370;47.712;9.082;2023-02-28T06:00:50;8.93;;;7.80;;
6667;SDS011;3370;47.712;9.082;2023-02-28T06:03:16;9.07;;;8.17;;
6667;SDS011;3370;47.712;9.082;2023-02-28T06:05:41;13.70;;;8.70;;
6667;SDS011;3370;47.712;9.082;2023-02-28T06:08:07;11.37;;;7.67;;
6667;SDS011;3370;47.712;9.082;2023-02-28T06:10:33;8.87;;;7.97;;
6667;SDS011;3370;47.712;9.082;2023-02-28T06:13:00;9.87;;;8.57;;
6667;SDS011;3370;47.712;9.082;2023-02-28T06:15:28;11.00;;;9.13;;
6667;SDS011;3370;47.712;9.082;2023-02-28T06:17:55;9.90;;;8.90;;
6667;SDS011;3370;47.712;9.082;2023-02-28T06:20:22;9.10;;;7.80;;
6667;SDS011;3370;47.712;9.082;2023-02-28T06:22:49;7.90;;;7.10;;
6667;SDS011;3370;47.712;9.082;2023-02-28T06:25:19;9.93;;;7.67;;
6667;SDS011;3370;47.712;9.082;2023-02-28T06:27:45;10.07;;;7.27;;
6667;SDS011;3370;47.712;9.082;2023-02-28T06:30:11;9.30;;;7.97;;
6667;SDS011;3370;47.712;9.082;2023-02-28T06:32:37;11.97;;;8.77;;
6667;SDS011;3370;47.712;9.082;2023-02-28T06:35:04;13.30;;;8.17;;
6667;SDS011;3370;47.712;9.082;2023-02-28T06:37:30;11.23;;;8.37;;
6667;SDS011;3370;47.712;9.082;2023-02-28T06:39:57;11.93;;;9.20;;
6667;SDS011;3370;47.712;9.082;2023-02-28T06:42:23;11.50;;;8.57;;
6667;SDS011;3370;47.712;9.082;2023-02-28T06:44:53;10.67;;;8.10;;
6667;SDS011;3370;47.712;9.082;2023-02-28T06:47:21;9.83;;;8.60;;
6667;SDS011;3370;47.712;9.082;2023-02-28T06:49:47;13.70;;;8.83;;
6667;SDS011;3370;47.712;9.082;2023-02-28T06:52:12;9.40;;;8.40;;
6667;SDS011;3370;47.712;9.082;2023-02-28T06:54:39;8.70;;;7.90;;
6667;SDS011;3370;47.712;9.082;2023-02-28T06:57:05;8.73;;;7.67;;
6667;SDS011;3370;47.712;9.082;2023-02-28T06:59:30;9.13;;;7.73;;
6667;SDS011;3370;47.712;9.082;2023-02-28T07:01:56;9.50;;;8.43;;
6667;SDS011;3370;47.712;9.082;2023-02-28T07:04:22;10.50;;;8.50;;
6667;SDS011;3370;47.712;9.082;2023-02-28T07:06:48;8.73;;;7.80;;
6667;SDS011;3370;47.712;9.082;2023-02-28T07:09:14;11.23;;;9.03;;
6667;SDS011;3370;47.712;9.082;2023-02-28T07:11:40;8.40;;;7.60;;
6667;SDS011;3370;47.712;9.082;2023-02-28T07:14:07;10.00;;;8.33;;
6667;SDS011;3370;47.712;9.082;2023-02-28T07:16:34;9.40;;;8.40;;
6667;SDS011;3370;47.712;9.082;2023-02-28T07:19:00;13.63;;;10.50;;
6667;SDS011;3370;47.712;9.082;2023-02-28T07:21:26;9.63;;;8.60;;
6667;SDS011;3370;47.712;9.082;2023-02-28T07:23:52;10.37;;;8.80;;
6667;SDS011;3370;47.712;9.082;2023-02-28T07:26:19;9.60;;;7.93;;
6667;SDS011;3370;47.712;9.082;2023-02-28T07:28:46;10.17;;;8.93;;
6667;SDS011;3370;47.712;9.082;2023-02-28T07:31:13;10.30;;;9.20;;
6667;SDS011;3370;47.712;9.082;2023-02-28T07:33:40;12.07;;;9.70;;
6667;SDS011;3370;47.712;9.082;2023-02-28T07:36:08;11.90;;;9.50;;
6667;SDS011;3370;47.712;9.082;2023-02-28T07:38:40;9.60;;;8.47;;
6667;SDS011;3370;47.712;9.082;2023-02-28T07:41:08;10.40;;;9.33;;
6667;SDS011;3370;47.712;9.082;2023-02-28T07:43:35;10.23;;;8.40;;
6667;SDS011;3370;47.712;9.082;2023-02-28T07:46:05;10.53;;;9.00;;
6667;SDS011;3370;47.712;9.082;2023-02-28T07:48:34;11.00;;;9.53;;
6667;SDS011;3370;47.712;9.082;2023-02-28T07:51:00;12.90;;;9.97;;
6667;SDS011;3370;47.712;9.082;2023-02-28T07:53:27;9.73;;;8.33;;
6667;SDS011;3370;47.712;9.082;2023-02-28T07:55:56;10.93;;;9.17;;
6667;SDS011;3370;47.712;9.082;2023-02-28T07:58:24;10.93;;;8.77;;
6667;SDS011;3370;47.712;9.082;2023-02-28T08:00:51;13.40;;;11.13;;
6667;SDS011;3370;47.712;9.082;2023-02-28T08:03:18;10.53;;;8.80;;
6667;SDS011;3370;47.712;9.082;2023-02-28T08:05:46;12.93;;;8.53;;
6667;SDS011;3370;47.712;9.082;2023-02-28T08:08:13;9.23;;;8.30;;
6667;SDS011;3370;47.712;9.082;2023-02-28T08:10:40;10.33;;;9.30;;
6667;SDS011;3370;47.712;9.082;2023-02-28T08:13:06;12.37;;;9.57;;
6667;SDS011;3370;47.712;9.082;2023-02-28T08:15:32;11.23;;;8.93;;
6667;SDS011;3370;47.712;9.082;2023-02-28T08:17:57;11.37;;;9.03;;
6667;SDS011;3370;47.712;9.082;2023-02-28T08:20:24;10.57;;;9.47;;
6667;SDS011;3370;47.712;9.082;2023-02-28T08:22:51;14.17;;;10.23;;
6667;SDS011;3370;47.712;9.082;2023-02-28T08:25:17;10.57;;;8.83;;
6667;SDS011;3370;47.712;9.082;2023-02-28T08:27:43;11.57;;;8.90;;
6667;SDS011;3370;47.712;9.082;2023-02-28T08:30:10;12.10;;;9.47;;
6667;SDS011;3370;47.712;9.082;2023-02-28T08:32:38;10.17;;;9.10;;
6667;SDS011;3370;47.712;9.082;2023-02-28T08:35:05;9.60;;;8.57;;
6667;SDS011;3370;47.712;9.082;2023-02-28T08:37:32;11.27;;;9.20;;
6667;SDS011;3370;47.712;9.082;2023-02-28T08:39:57;10.13;;;9.10;;
6667;SDS011;3370;47.712;9.082;2023-02-28T08:42:23;11.97;;;9.40;;
6667;SDS011;3370;47.712;9.082;2023-02-28T08:44:49;12.00;;;9.50;;
6667;SDS011;3370;47.712;9.082;2023-02-28T08:47:15;10.60;;;8.93;;
6667;SDS011;3370;47.712;9.082;2023-02-28T08:49:41;11.17;;;9.30;;
6667;SDS011;3370;47.712;9.082;2023-02-28T08:52:07;9.90;;;8.90;;
6667;SDS011;3370;47.712;9.082;2023-02-28T08:54:32;11.30;;;9.87;;
6667;SDS011;3370;47.712;9.082;2023-02-28T08:56:59;14.37;;;9.40;;
6667;SDS011;3370;47.712;9.082;2023-02-28T08:59:25;11.33;;;9.60;;
6667;SDS011;3370;47.712;9.082;2023-02-28T09:01:51;11.03;;;9.63;;
6667;SDS011;3370;47.712;9.082;2023-02-28T09:04:17;10.93;;;8.90;;
6667;SDS011;3370;47.712;9.082;2023-02-28T09:06:43;11.20;;;9.07;;
6667;SDS011;3370;47.712;9.082;2023-02-28T09:09:10;11.20;;;9.00;;
6667;SDS011;3370;47.712;9.082;2023-02-28T09:11:36;12.30;;;9.30;;
6667;SDS011;3370;47.712;9.082;2023-02-28T09:14:02;13.43;;;9.40;;
6667;SDS011;3370;47.712;9.082;2023-02-28T09:16:29;11.80;;;10.47;;
6667;SDS011;3370;47.712;9.082;2023-02-28T09:18:56;9.67;;;8.70;;
6667;SDS011;3370;47.712;9.082;2023-02-28T09:21:22;14.43;;;10.80;;
6667;SDS011;3370;47.712;9.082;2023-02-28T09:23:49;13.50;;;10.47;;
6667;SDS011;3370;47.712;9.082;2023-02-28T09:26:20;16.70;;;10.13;;
6667;SDS011;3370;47.712;9.082;2023-02-28T09:28:50;13.00;;;11.00;;
6667;SDS011;3370;47.712;9.082;2023-02-28T09:31:18;12.07;;;10.20;;
6667;SDS011;3370;47.712;9.082;2023-02-28T09:33:50;13.93;;;10.47;;
6667;SDS011;3370;47.712;9.082;2023-02-28T09:36:19;16.37;;;10.30;;
6667;SDS011;3370;47.712;9.082;2023-02-28T09:38:46;11.87;;;10.60;;
6667;SDS011;3370;47.712;9.082;2023-02-28T09:41:13;14.67;;;10.17;;
6667;SDS011;3370;47.712;9.082;2023-02-28T09:43:44;11.10;;;9.50;;
6667;SDS011;3370;47.712;9.082;2023-02-28T09:46:23;11.77;;;9.90;;
6667;SDS011;3370;47.712;9.082;2023-02-28T09:49:17;14.80;;;10.90;;
6667;SDS011;3370;47.712;9.082;2023-02-28T09:51:58;11.70;;;10.10;;
6667;SDS011;3370;47.712;9.082;2023-02-28T09:54:34;23.83;;;19.57;;
6667;SDS011;3370;47.712;9.082;2023-02-28T09:57:06;13.70;;;10.43;;
6667;SDS011;3370;47.712;9.082;2023-02-28T10:00:01;12.53;;;10.57;;
6667;SDS011;3370;47.712;9.082;2023-02-28T10:02:49;15.03;;;10.43;;
6667;SDS011;3370;47.712;9.082;2023-02-28T10:09:04;13.77;;;10.47;;
6667;SDS011;3370;47.712;9.082;2023-02-28T10:11:43;13.70;;;10.17;;
6667;SDS011;3370;47.712;9.082;2023-02-28T10:14:16;13.90;;;10.67;;
6667;SDS011;3370;47.712;9.082;2023-02-28T10:16:50;14.13;;;11.43;;
6667;SDS011;3370;47.712;9.082;2023-02-28T10:22:24;14.33;;;10.20;;
6667;SDS011;3370;47.712;9.082;2023-02-28T10:25:18;11.97;;;10.27;;
6667;SDS011;3370;47.712;9.082;2023-02-28T10:27:49;14.20;;;10.30;;
6667;SDS011;3370;47.712;9.082;2023-02-28T10:30:18;12.50;;;10.07;;
6667;SDS011;3370;47.712;9.082;2023-02-28T10:32:47;13.30;;;10.83;;
6667;SDS011;3370;47.712;9.082;2023-02-28T10:35:19;12.80;;;11.00;;
6667;SDS011;3370;47.712;9.082;2023-02-28T10:37:50;14.47;;;10.73;;
6667;SDS011;3370;47.712;9.082;2023-02-28T10:45:21;14.90;;;11.27;;
6667;SDS011;3370;47.712;9.082;2023-02-28T10:50:26;14.17;;;10.37;;
6667;SDS011;3370;47.712;9.082;2023-02-28T10:56:23;13.90;;;11.30;;
6667;SDS011;3370;47.712;9.082;2023-02-28T11:04:15;11.50;;;10.20;;
6667;SDS011;3370;47.712;9.082;2023-02-28T11:06:47;13.40;;;11.03;;
6667;SDS011;3370;47.712;9.082;2023-02-28T11:12:06;15.60;;;11.57;;
6667;SDS011;3370;47.712;9.082;2023-02-28T11:14:47;15.40;;;11.50;;
6667;SDS011;3370;47.712;9.082;2023-02-28T11:17:27;16.23;;;11.00;;
6667;SDS011;3370;47.712;9.082;2023-02-28T11:19:56;16.83;;;12.40;;
6667;SDS011;3370;47.712;9.082;2023-02-28T11:22:32;13.40;;;10.40;;
6667;SDS011;3370;47.712;9.082;2023-02-28T11:25:19;12.37;;;10.60;;
6667;SDS011;3370;47.712;9.082;2023-02-28T11:27:54;15.67;;;10.40;;
6667;SDS011;3370;47.712;9.082;2023-02-28T11:30:33;14.80;;;10.93;;
6667;SDS011;3370;47.712;9.082;2023-02-28T11:36:14;15.23;;;10.90;;
6667;SDS011;3370;47.712;9.082;2023-02-28T11:38:49;15.00;;;11.97;;
6667;SDS011;3370;47.712;9.082;2023-02-28T11:44:27;14.97;;;11.77;;
6667;SDS011;3370;47.712;9.082;2023-02-28T11:47:09;18.30;;;11.80;;
6667;SDS011;3370;47.712;9.082;2023-02-28T11:50:04;14.43;;;11.83;;
6667;SDS011;3370;47.712;9.082;2023-02-28T11:52:54;18.03;;;12.10;;
6667;SDS011;3370;47.712;9.082;2023-02-28T11:55:26;18.23;;;14.13;;
6667;SDS011;3370;47.712;9.082;2023-02-28T11:58:47;18.10;;;12.40;;
6667;SDS011;3370;47.712;9.082;2023-02-28T12:04:33;14.43;;;10.90;;
6667;SDS011;3370;47.712;9.082;2023-02-28T12:16:27;15.40;;;12.30;;
6667;SDS011;3370;47.712;9.082;2023-02-28T12:21:57;17.70;;;14.10;;
6667;SDS011;3370;47.712;9.082;2023-02-28T12:24:57;15.83;;;12.43;;
6667;SDS011;3370;47.712;9.082;2023-02-28T12:27:57;15.60;;;11.73;;
6667;SDS011;3370;47.712;9.082;2023-02-28T12:30:25;16.50;;;13.00;;
6667;SDS011;3370;47.712;9.082;2023-02-28T12:33:05;16.00;;;12.80;;
6667;SDS011;3370;47.712;9.082;2023-02-28T12:35:57;16.30;;;12.47;;
6667;SDS011;3370;47.712;9.082;2023-02-28T12:38:29;16.40;;;13.37;;
6667;SDS011;3370;47.712;9.082;2023-02-28T12:41:04;25.57;;;13.87;;
6667;SDS011;3370;47.712;9.082;2023-02-28T12:43:50;22.47;;;13.20;;
6667;SDS011;3370;47.712;9.082;2023-02-28T12:46:27;18.90;;;12.80;;
6667;SDS011;3370;47.712;9.082;2023-02-28T12:49:02;17.40;;;13.23;;
6667;SDS011;3370;47.712;9.082;2023-02-28T12:51:35;20.03;;;13.60;;
6667;SDS011;3370;47.712;9.082;2023-02-28T12:59:51;17.10;;;13.13;;
6667;SDS011;3370;47.712;9.082;2023-02-28T13:11:29;23.10;;;15.80;;
6667;SDS011;3370;47.712;9.082;2023-02-28T13:14:03;26.83;;;15.07;;
6667;SDS011;3370;47.712;9.082;2023-02-28T13:16:55;16.43;;;13.13;;
6667;SDS011;3370;47.712;9.082;2023-02-28T13:19:44;19.40;;;15.00;;
6667;SDS011;3370;47.712;9.082;2023-02-28T13:24:49;18.20;;;13.20;;
6667;SDS011;3370;47.712;9.082;2023-02-28T13:27:32;50.00;;;24.00;;
6667;SDS011;3370;47.712;9.082;2023-02-28T13:33:30;21.70;;;14.63;;
6667;SDS011;3370;47.712;9.082;2023-02-28T13:38:57;21.77;;;13.17;;
6667;SDS011;3370;47.712;9.082;2023-02-28T13:44:03;21.20;;;13.50;;
6667;SDS011;3370;47.712;9.082;2023-02-28T13:47:15;31.13;;;15.10;;
6667;SDS011;3370;47.712;9.082;2023-02-28T13:51:52;19.03;;;14.50;;
6667;SDS011;3370;47.712;9.082;2023-02-28T14:06:47;18.30;;;13.87;;
6667;SDS011;3370;47.712;9.082;2023-02-28T14:09:23;20.97;;;14.73;;
6667;SDS011;3370;47.712;9.082;2023-02-28T14:11:56;18.83;;;15.13;;
6667;SDS011;3370;47.712;9.082;2023-02-28T14:17:12;25.37;;;15.00;;
6667;SDS011;3370;47.712;9.082;2023-02-28T14:19:43;20.57;;;16.03;;
6667;SDS011;3370;47.712;9.082;2023-02-28T14:28:37;20.07;;;15.13;;
6667;SDS011;3370;47.712;9.082;2023-02-28T14:31:24;23.37;;;15.47;;
6667;SDS011;3370;47.712;9.082;2023-02-28T14:37:09;29.97;;;15.57;;
6667;SDS011;3370;47.712;9.082;2023-02-28T14:39:44;22.13;;;14.43;;
6667;SDS011;3370;47.712;9.082;2023-02-28T14:44:56;23.90;;;14.77;;
6667;SDS011;3370;47.712;9.082;2023-02-28T14:47:22;19.43;;;14.40;;
6667;SDS011;3370;47.712;9.082;2023-02-28T14:49:52;21.40;;;14.20;;
6667;SDS011;3370;47.712;9.082;2023-02-28T14:52:20;21.90;;;14.30;;
6667;SDS011;3370;47.712;9.082;2023-02-28T14:54:52;26.67;;;16.50;;
6667;SDS011;3370;47.712;9.082;2023-02-28T14:57:28;18.47;;;14.43;;
6667;SDS011;3370;47.712;9.082;2023-02-28T15:00:02;20.77;;;14.53;;
6667;SDS011;3370;47.712;9.082;2023-02-28T15:02:42;22.17;;;15.03;;
6667;SDS011;3370;47.712;9.082;2023-02-28T15:07:37;21.67;;;14.93;;
6667;SDS011;3370;47.712;9.082;2023-02-28T15:10:23;20.83;;;14.43;;
6667;SDS011;3370;47.712;9.082;2023-02-28T15:15:26;16.73;;;14.47;;
6667;SDS011;3370;47.712;9.082;2023-02-28T15:18:07;17.23;;;14.27;;
6667;SDS011;3370;47.712;9.082;2023-02-28T15:20:41;18.60;;;15.00;;
6667;SDS011;3370;47.712;9.082;2023-02-28T15:23:09;24.60;;;14.00;;
6667;SDS011;3370;47.712;9.082;2023-02-28T15:25:36;17.53;;;13.93;;
6667;SDS011;3370;47.712;9.082;2023-02-28T15:28:02;16.53;;;13.80;;
6667;SDS011;3370;47.712;9.082;2023-02-28T15:30:29;20.57;;;13.53;;
6667;SDS011;3370;47.712;9.082;2023-02-28T15:35:47;15.80;;;13.37;;
6667;SDS011;3370;47.712;9.082;2023-02-28T15:38:18;25.30;;;13.77;;
6667;SDS011;3370;47.712;9.082;2023-02-28T15:40:58;19.77;;;14.60;;
6667;SDS011;3370;47.712;9.082;2023-02-28T15:43:26;22.13;;;15.50;;
6667;SDS011;3370;47.712;9.082;2023-02-28T15:51:16;15.87;;;14.10;;
6667;SDS011;3370;47.712;9.082;2023-02-28T15:53:57;20.07;;;15.40;;
6667;SDS011;3370;47.712;9.082;2023-02-28T15:56:43;19.90;;;15.30;;
6667;SDS011;3370;47.712;9.082;2023-02-28T15:59:14;16.63;;;14.27;;
6667;SDS011;3370;47.712;9.082;2023-02-28T16:02:02;21.40;;;14.90;;
6667;SDS011;3370;47.712;9.082;2023-02-28T16:04:34;18.70;;;13.90;;
6667;SDS011;3370;47.712;9.082;2023-02-28T16:07:02;22.00;;;13.80;;
6667;SDS011;3370;47.712;9.082;2023-02-28T16:09:30;20.70;;;14.73;;
6667;SDS011;3370;47.712;9.082;2023-02-28T16:12:00;18.70;;;14.93;;
6667;SDS011;3370;47.712;9.082;2023-02-28T16:14:28;19.17;;;14.73;;
6667;SDS011;3370;47.712;9.082;2023-02-28T16:16:57;19.90;;;15.17;;
6667;SDS011;3370;47.712;9.082;2023-02-28T16:19:36;19.00;;;14.07;;
6667;SDS011;3370;47.712;9.082;2023-02-28T16:22:02;28.40;;;15.67;;
6667;SDS011;3370;47.712;9.082;2023-02-28T16:24:28;25.07;;;17.50;;
6667;SDS011;3370;47.712;9.082;2023-02-28T16:26:53;18.37;;;13.70;;
6667;SDS011;3370;47.712;9.082;2023-02-28T16:29:32;19.73;;;14.80;;
6667;SDS011;3370;47.712;9.082;2023-02-28T16:32:04;21.10;;;15.20;;
6667;SDS011;3370;47.712;9.082;2023-02-28T16:34:31;19.10;;;14.50;;
6667;SDS011;3370;47.712;9.082;2023-02-28T16:36:57;18.67;;;15.80;;
6667;SDS011;3370;47.712;9.082;2023-02-28T16:39:23;22.40;;;15.70;;
6667;SDS011;3370;47.712;9.082;2023-02-28T16:41:49;28.37;;;17.40;;
6667;SDS011;3370;47.712;9.082;2023-02-28T16:47:00;19.03;;;14.53;;
6667;SDS011;3370;47.712;9.082;2023-02-28T16:49:28;28.40;;;18.17;;
6667;SDS011;3370;47.712;9.082;2023-02-28T16:51:54;33.00;;;20.23;;
6667;SDS011;3370;47.712;9.082;2023-02-28T16:54:20;23.40;;;17.10;;
6667;SDS011;3370;47.712;9.082;2023-02-28T16:56:46;25.40;;;16.60;;
6667;SDS011;3370;47.712;9.082;2023-02-28T16:59:13;21.07;;;15.90;;
6667;SDS011;3370;47.712;9.082;2023-02-28T17:01:44;25.97;;;17.90;;
6667;SDS011;3370;47.712;9.082;2023-02-28T17:04:10;22.17;;;16.60;;
6667;SDS011;3370;47.712;9.082;2023-02-28T17:06:37;26.87;;;17.00;;
6667;SDS011;3370;47.712;9.082;2023-02-28T17:09:03;23.00;;;16.13;;
6667;SDS011;3370;47.712;9.082;2023-02-28T17:11:29;24.33;;;16.60;;
6667;SDS011;3370;47.712;9.082;2023-02-28T17:13:55;23.20;;;17.00;;
6667;SDS011;3370;47.712;9.082;2023-02-28T17:16:31;24.47;;;18.40;;
6667;SDS011;3370;47.712;9.082;2023-02-28T17:19:02;23.97;;;17.67;;
6667;SDS011;3370;47.712;9.082;2023-02-28T17:21:31;24.43;;;17.80;;
6667;SDS011;3370;47.712;9.082;2023-02-28T17:23:58;24.30;;;17.30;;
6667;SDS011;3370;47.712;9.082;2023-02-28T17:26:24;35.70;;;17.83;;
6667;SDS011;3370;47.712;9.082;2023-02-28T17:28:51;23.00;;;17.03;;
6667;SDS011;3370;47.712;9.082;2023-02-28T17:31:20;20.07;;;16.13;;
6667;SDS011;3370;47.712;9.082;2023-02-28T17:33:50;27.60;;;16.40;;
6667;SDS011;3370;47.712;9.082;2023-02-28T17:36:22;28.50;;;18.50;;
6667;SDS011;3370;47.712;9.082;2023-02-28T17:38:53;25.67;;;18.37;;
6667;SDS011;3370;47.712;9.082;2023-02-28T17:41:23;22.60;;;17.30;;
6667;SDS011;3370;47.712;9.082;2023-02-28T17:43:51;24.53;;;16.87;;
6667;SDS011;3370;47.712;9.082;2023-02-28T17:48:48;27.90;;;18.47;;
6667;SDS011;3370;47.712;9.082;2023-02-28T17:51:19;26.27;;;18.80;;
6667;SDS011;3370;47.712;9.082;2023-02-28T17:53:47;26.10;;;19.67;;
6667;SDS011;3370;47.712;9.082;2023-02-28T17:56:18;30.03;;;20.47;;
6667;SDS011;3370;47.712;9.082;2023-02-28T17:58:50;26.63;;;17.20;;
6667;SDS011;3370;47.712;9.082;2023-02-28T18:01:18;29.40;;;19.13;;
6667;SDS011;3370;47.712;9.082;2023-02-28T18:03:45;24.70;;;18.37;;
6667;SDS011;3370;47.712;9.082;2023-02-28T18:06:54;30.17;;;18.60;;
6667;SDS011;3370;47.712;9.082;2023-02-28T18:09:15;27.70;;;19.17;;